createdAt,value
2019-04-01T00:05:02.924Z,19.00
2019-04-01T00:10:06.581Z,19.08
2019-04-01T00:15:10.242Z,20.46
2019-04-01T00:20:13.778Z,21.48
2019-04-01T00:25:17.383Z,21.98
2019-04-01T00:30:20.998Z,22.48
2019-04-01T00:35:24.617Z,22.48
2019-04-01T00:40:28.236Z,22.54
2019-04-01T00:45:33.495Z,22.37
2019-04-01T00:50:37.323Z,22.02
2019-04-01T00:55:40.945Z,21.75
2019-04-01T01:00:44.559Z,21.70
2019-04-01T01:05:48.183Z,21.72
2019-04-01T01:10:51.798Z,21.47
2019-04-01T01:15:55.421Z,20.97
2019-04-01T01:20:59.120Z,20.19
2019-04-01T01:26:02.758Z,19.96
2019-04-01T01:31:06.378Z,19.63
2019-04-01T01:36:10.007Z,19.51
2019-04-01T01:41:13.626Z,19.33
2019-04-01T01:46:17.241Z,19.09
2019-04-01T01:51:20.866Z,19.10
2019-04-01T01:56:24.474Z,18.87
2019-04-01T02:01:28.103Z,18.79
2019-04-01T02:06:31.623Z,18.68
2019-04-01T02:11:35.162Z,18.65
2019-04-01T02:16:38.748Z,19.21
2019-04-01T02:21:42.366Z,20.77
2019-04-01T02:26:45.989Z,21.51
2019-04-01T02:31:49.605Z,21.72
2019-04-01T02:36:53.142Z,21.84
2019-04-01T02:41:56.679Z,21.72
2019-04-01T02:47:00.277Z,21.54
2019-04-01T02:52:04.806Z,21.55
2019-04-01T02:57:08.425Z,21.29
2019-04-01T03:02:12.039Z,21.21
2019-04-01T03:07:15.597Z,20.95
2019-04-01T03:12:19.180Z,21.01
2019-04-01T03:17:22.800Z,20.24
2019-04-01T03:22:26.361Z,19.78
2019-04-01T03:27:29.954Z,19.36
2019-04-01T03:32:33.590Z,19.15
2019-04-01T03:37:37.166Z,18.96
2019-04-01T03:42:40.686Z,18.72
2019-04-01T03:47:44.224Z,18.53
2019-04-01T03:52:48.146Z,18.40
2019-04-01T03:57:51.763Z,18.34
2019-04-01T04:02:55.305Z,18.53
2019-04-01T04:07:58.872Z,18.45
2019-04-01T04:13:02.395Z,18.30
2019-04-01T04:18:05.996Z,18.30
2019-04-01T04:23:09.581Z,18.30
2019-04-01T04:28:13.107Z,18.10
2019-04-01T04:33:16.697Z,18.14
2019-04-01T04:38:20.244Z,18.03
2019-04-01T04:43:23.825Z,18.00
2019-04-01T04:48:27.362Z,17.93
2019-04-01T04:53:30.964Z,18.02
2019-04-01T04:58:34.560Z,17.87
2019-04-01T05:03:38.088Z,18.01
2019-04-01T05:08:41.646Z,19.17
2019-04-01T05:13:45.233Z,20.45
2019-04-01T05:18:48.760Z,21.14
2019-04-01T05:23:52.333Z,21.83
2019-04-01T05:28:55.875Z,22.11
2019-04-01T05:33:59.420Z,22.37
2019-04-01T05:39:02.998Z,22.67
2019-04-01T05:44:06.556Z,22.50
2019-04-01T05:49:10.155Z,22.21
2019-04-01T05:54:13.716Z,22.01
2019-04-01T05:59:17.284Z,22.06
2019-04-01T06:04:20.872Z,21.99
2019-04-01T06:09:24.424Z,22.13
2019-04-01T06:14:27.974Z,22.22
2019-04-01T06:19:31.507Z,22.01
2019-04-01T06:24:35.048Z,21.93
2019-04-01T06:29:38.683Z,21.99
2019-04-01T06:34:52.808Z,21.86
2019-04-01T06:39:47.547Z,21.85
2019-04-01T06:44:51.092Z,22.03
2019-04-01T06:49:54.669Z,22.15
2019-04-01T06:54:58.201Z,22.29
2019-04-01T07:00:01.743Z,22.36
2019-04-01T07:05:06.185Z,22.42
2019-04-01T07:10:09.743Z,22.56
2019-04-01T07:15:13.284Z,22.59
2019-04-01T07:20:16.857Z,22.64
2019-04-01T07:25:20.421Z,22.76
2019-04-01T07:30:23.954Z,22.89
2019-04-01T07:35:27.556Z,22.98
2019-04-01T07:40:31.194Z,22.96
2019-04-01T07:45:34.934Z,22.93
2019-04-01T07:50:38.492Z,23.04
2019-04-01T07:55:42.016Z,23.09
2019-04-01T08:00:45.569Z,23.11
2019-04-01T08:05:49.118Z,23.10
2019-04-01T08:10:52.654Z,23.11
2019-04-01T08:15:56.174Z,23.08
2019-04-01T08:20:59.767Z,23.07
2019-04-01T08:26:03.327Z,23.03
2019-04-01T08:31:07.863Z,23.00
2019-04-01T08:36:11.450Z,22.99
2019-04-01T08:41:14.967Z,22.95
2019-04-01T08:46:18.530Z,22.92
2019-04-01T08:51:22.129Z,22.90
2019-04-01T08:56:25.645Z,22.88
2019-04-01T09:01:35.458Z,22.87
2019-04-01T09:06:34.868Z,22.85
2019-04-01T09:11:38.838Z,22.80
2019-04-01T09:16:42.546Z,22.78
2019-04-01T09:21:46.105Z,22.73
2019-04-01T09:26:49.675Z,22.67
2019-04-01T09:31:53.244Z,22.62
2019-04-01T09:36:56.797Z,22.58
2019-04-01T09:42:00.341Z,22.55
2019-04-01T09:47:04.952Z,22.48
2019-04-01T09:52:08.513Z,22.42
2019-04-01T09:57:17.866Z,22.38
2019-04-01T10:02:31.075Z,22.31
2019-04-01T10:07:29.159Z,22.26
2019-04-01T10:12:32.779Z,22.19
2019-04-01T10:17:36.315Z,22.13
2019-04-01T10:22:39.878Z,22.04
2019-04-01T10:27:43.599Z,21.99
2019-04-01T10:32:47.125Z,21.93
2019-04-01T10:37:50.709Z,21.84
2019-04-01T10:42:54.255Z,21.78
2019-04-01T10:47:57.986Z,21.70
2019-04-01T10:53:01.678Z,21.63
2019-04-01T10:58:05.327Z,21.54
2019-04-01T11:03:08.963Z,21.46
2019-04-01T12:32:12.307Z,20.20
2019-04-01T12:37:15.905Z,20.10
2019-04-01T12:42:19.749Z,20.14
2019-04-01T12:47:23.789Z,20.15
2019-04-01T12:52:27.336Z,20.32
2019-04-01T12:57:30.900Z,20.25
2019-04-01T13:02:34.555Z,20.12
2019-04-01T13:07:38.092Z,20.26
2019-04-01T13:12:41.717Z,20.18
2019-04-01T13:17:45.597Z,20.16
2019-04-01T13:22:50.340Z,20.26
2019-04-01T13:27:53.920Z,20.52
2019-04-01T13:32:57.505Z,21.19
2019-04-01T13:38:01.107Z,21.82
2019-04-01T13:43:04.904Z,21.82
2019-04-01T13:48:08.534Z,22.00
2019-04-01T13:53:12.088Z,22.43
2019-04-01T13:58:17.572Z,22.40
2019-04-01T14:03:21.045Z,22.29
2019-04-01T14:08:24.588Z,22.28
2019-04-01T14:13:28.194Z,22.14
2019-04-01T14:18:32.008Z,22.07
2019-04-01T14:23:35.602Z,22.02
2019-04-01T14:28:39.230Z,21.87
2019-04-01T14:33:43.317Z,21.81
2019-04-01T14:38:46.982Z,21.78
2019-04-01T14:43:50.611Z,21.74
2019-04-01T14:48:54.378Z,21.59
2019-04-01T14:54:02.469Z,21.47
2019-04-01T14:59:06.171Z,21.44
2019-04-01T15:04:09.907Z,21.16
2019-04-01T15:09:13.551Z,20.93
2019-04-01T15:14:17.145Z,20.83
2019-04-01T15:19:20.756Z,20.82
2019-04-01T15:24:24.309Z,20.53
2019-04-01T15:29:29.177Z,20.71
2019-04-01T15:34:32.840Z,20.62
2019-04-01T15:39:36.406Z,20.57
2019-04-01T15:44:40.001Z,20.64
2019-04-01T15:49:43.633Z,20.54
2019-04-01T15:54:47.205Z,21.33
2019-04-01T15:59:50.830Z,21.65
2019-04-01T16:04:54.452Z,22.19
2019-04-01T16:09:58.164Z,22.72
2019-04-01T16:15:01.786Z,22.96
2019-04-01T16:20:06.735Z,22.88
2019-04-01T16:25:10.360Z,22.62
2019-04-01T16:30:14.179Z,22.55
2019-04-01T16:35:17.846Z,22.44
2019-04-01T16:40:21.621Z,22.15
2019-04-01T16:45:25.352Z,22.02
2019-04-01T16:50:29.089Z,21.69
2019-04-01T16:55:32.672Z,21.32
2019-04-01T17:00:36.240Z,21.08
2019-04-01T17:05:39.844Z,20.89
2019-04-01T17:10:43.412Z,20.76
2019-04-01T17:15:47.059Z,20.66
2019-04-01T17:20:50.709Z,20.48
2019-04-01T17:25:54.860Z,20.41
2019-04-01T17:30:58.640Z,20.24
2019-04-01T17:36:02.259Z,20.19
2019-04-01T17:41:05.943Z,20.10
2019-04-01T17:46:09.597Z,20.07
2019-04-01T17:51:13.226Z,20.13
2019-04-01T17:56:17.933Z,20.66
2019-04-01T18:01:21.786Z,21.69
2019-04-01T18:06:25.643Z,22.26
2019-04-01T18:11:29.232Z,22.63
2019-04-01T18:16:33.688Z,22.60
2019-04-01T18:21:38.288Z,22.47
2019-04-01T18:26:42.789Z,22.80
2019-04-01T18:31:46.475Z,22.69
2019-04-01T18:36:52.056Z,22.47
2019-04-01T18:41:55.393Z,22.37
2019-04-01T18:46:59.000Z,22.20
2019-04-01T18:52:02.552Z,22.13
2019-04-01T18:57:06.124Z,21.99
2019-04-01T19:02:09.725Z,20.94
2019-04-01T19:07:13.355Z,20.50
2019-04-01T19:12:17.037Z,20.31
2019-04-01T19:17:20.686Z,20.14
2019-04-01T19:22:24.309Z,19.90
2019-04-01T19:27:27.930Z,19.77
2019-04-01T19:32:32.061Z,19.61
2019-04-01T19:37:35.695Z,19.50
2019-04-01T19:42:39.874Z,19.49
2019-04-01T19:47:43.630Z,20.94
2019-04-01T19:52:47.252Z,21.55
2019-04-01T19:57:50.874Z,22.21
2019-04-01T20:02:55.333Z,22.62
2019-04-01T20:07:59.864Z,22.79
2019-04-01T20:13:03.476Z,22.87
2019-04-01T20:18:07.970Z,22.57
2019-04-01T20:23:11.940Z,22.63
2019-04-01T20:28:15.493Z,22.82
2019-04-01T20:33:20.645Z,22.27
2019-04-01T20:38:24.740Z,22.15
2019-04-01T20:43:28.353Z,22.56
2019-04-01T20:48:33.084Z,22.25
2019-04-01T20:53:36.921Z,22.04
2019-04-01T20:58:41.251Z,21.63
2019-04-01T21:03:45.704Z,20.80
2019-04-01T21:08:49.329Z,20.03
2019-04-01T21:13:52.875Z,19.72
2019-04-01T21:18:56.455Z,19.43
2019-04-01T21:24:00.078Z,19.23
2019-04-01T21:29:03.702Z,19.08
2019-04-01T21:34:07.856Z,18.90
2019-04-01T21:39:11.544Z,18.85
2019-04-01T21:44:15.168Z,18.68
2019-04-01T21:49:18.791Z,18.57
2019-04-01T21:54:22.609Z,18.49
2019-04-01T21:59:26.227Z,18.42
2019-04-01T22:04:29.851Z,18.36
2019-04-01T22:09:34.458Z,18.29
2019-04-01T22:14:38.012Z,18.21
2019-04-01T22:19:41.627Z,18.12
2019-04-01T22:24:45.249Z,18.03
2019-04-01T22:29:49.323Z,18.03
2019-04-01T22:34:52.894Z,18.22
2019-04-01T22:39:56.871Z,19.55
2019-04-01T22:45:00.485Z,20.79
2019-04-01T22:50:06.292Z,21.47
2019-04-01T22:55:09.944Z,22.01
2019-04-01T23:00:13.697Z,22.21
2019-04-01T23:05:17.383Z,22.75
2019-04-01T23:10:20.999Z,22.67
2019-04-01T23:15:24.624Z,22.43
2019-04-01T23:20:28.234Z,22.20
2019-04-01T23:25:31.858Z,21.94
2019-04-01T23:30:35.407Z,21.68
2019-04-01T23:35:39.102Z,21.62
2019-04-01T23:40:42.723Z,21.45
2019-04-01T23:45:46.338Z,21.43
2019-04-01T23:50:49.956Z,21.21
2019-04-01T23:55:53.580Z,20.74
